createdAt,value
2019-03-26T00:01:45.158Z,3.40
2019-03-26T00:04:13.295Z,3.20
2019-03-26T00:06:42.113Z,3.00
2019-03-26T00:09:10.109Z,3.00
2019-03-26T00:11:38.156Z,2.90
2019-03-26T00:14:06.184Z,3.00
2019-03-26T00:16:34.219Z,3.00
2019-03-26T00:19:03.030Z,2.90
2019-03-26T00:21:31.110Z,2.90
2019-03-26T00:23:59.895Z,2.70
2019-03-26T00:26:27.943Z,2.70
2019-03-26T00:28:56.962Z,2.70
2019-03-26T00:31:25.024Z,2.70
2019-03-26T00:33:53.816Z,2.90
2019-03-26T00:36:21.875Z,2.80
2019-03-26T00:38:50.754Z,3.10
2019-03-26T00:41:19.468Z,3.10
2019-03-26T00:43:47.514Z,3.10
2019-03-26T00:46:15.580Z,3.00
2019-03-26T00:48:44.377Z,3.00
2019-03-26T00:51:13.176Z,3.30
2019-03-26T00:53:41.216Z,3.30
2019-03-26T00:56:10.019Z,3.50
2019-03-26T00:58:38.915Z,3.60
2019-03-26T01:01:06.960Z,3.60
2019-03-26T01:03:35.068Z,3.70
2019-03-26T01:06:03.853Z,3.60
2019-03-26T01:08:31.885Z,3.60
2019-03-26T01:10:59.943Z,3.30
2019-03-26T01:13:27.974Z,3.20
2019-03-26T01:15:56.022Z,3.20
2019-03-26T01:18:24.828Z,3.40
2019-03-26T01:20:52.874Z,3.40
2019-03-26T01:23:21.752Z,3.40
2019-03-26T01:25:50.561Z,3.30
2019-03-26T01:28:18.608Z,3.20
2019-03-26T01:30:47.409Z,3.60
2019-03-26T01:33:16.232Z,3.50
2019-03-26T01:35:44.232Z,3.50
2019-03-26T01:38:12.272Z,3.40
2019-03-26T01:40:40.327Z,3.40
2019-03-26T01:43:08.379Z,3.40
2019-03-26T01:45:36.461Z,3.20
2019-03-26T01:48:04.499Z,3.30
2019-03-26T01:50:32.527Z,3.40
2019-03-26T01:53:00.567Z,3.30
2019-03-26T01:55:28.692Z,3.20
2019-03-26T01:57:56.711Z,3.10
2019-03-26T02:00:24.747Z,3.10
2019-03-26T02:02:52.794Z,3.10
2019-03-26T02:05:20.822Z,3.00
2019-03-26T02:07:49.612Z,3.30
2019-03-26T02:10:17.631Z,3.30
2019-03-26T02:12:48.481Z,3.20
2019-03-26T02:15:13.731Z,2.80
2019-03-26T02:17:41.775Z,2.70
2019-03-26T02:20:10.576Z,2.80
2019-03-26T02:22:38.632Z,2.80
2019-03-26T02:25:07.400Z,2.80
2019-03-26T02:27:36.202Z,2.80
2019-03-26T02:30:05.044Z,2.70
2019-03-26T02:32:33.067Z,2.70
2019-03-26T02:35:16.993Z,2.60
2019-03-26T02:37:29.233Z,2.40
2019-03-26T02:39:57.286Z,2.40
2019-03-26T02:42:26.050Z,2.30
2019-03-26T02:44:54.911Z,2.60
2019-03-26T02:47:22.977Z,2.60
2019-03-26T02:49:50.974Z,2.90
2019-03-26T02:52:19.020Z,2.70
2019-03-26T02:54:47.047Z,2.60
2019-03-26T02:57:15.115Z,2.50
2019-03-26T02:59:43.161Z,2.50
2019-03-26T03:02:11.190Z,2.50
2019-03-26T03:04:39.225Z,2.60
2019-03-26T03:07:07.263Z,2.60
2019-03-26T03:09:35.369Z,2.70
2019-03-26T03:12:03.460Z,2.50
2019-03-26T03:14:31.475Z,2.60
2019-03-26T03:17:00.321Z,2.90
2019-03-26T03:19:28.358Z,2.90
2019-03-26T03:21:56.449Z,2.90
2019-03-26T03:24:25.367Z,2.50
2019-03-26T03:26:53.402Z,2.50
2019-03-26T03:29:21.453Z,2.60
2019-03-26T03:31:50.410Z,2.80
2019-03-26T03:34:18.442Z,2.80
2019-03-26T03:36:46.641Z,2.70
2019-03-26T03:39:14.670Z,2.80
2019-03-26T03:41:42.716Z,2.80
2019-03-26T03:44:11.553Z,2.50
2019-03-26T03:46:39.724Z,2.50
2019-03-26T03:49:08.514Z,2.70
2019-03-26T03:51:36.590Z,2.70
2019-03-26T03:54:04.627Z,2.80
2019-03-26T03:56:32.675Z,2.70
2019-03-26T03:59:01.581Z,2.80
2019-03-26T04:01:29.621Z,2.80
2019-03-26T04:03:57.656Z,3.00
2019-03-26T04:06:25.690Z,3.00
2019-03-26T04:08:53.760Z,3.00
2019-03-26T04:11:22.539Z,2.90
2019-03-26T04:13:50.598Z,2.90
2019-03-26T04:16:18.746Z,2.70
2019-03-26T04:18:46.868Z,2.60
2019-03-26T04:21:15.756Z,2.60
2019-03-26T04:23:43.811Z,2.60
2019-03-26T04:26:11.858Z,2.60
2019-03-26T04:28:39.963Z,2.70
2019-03-26T04:31:07.999Z,2.90
2019-03-26T04:33:36.114Z,2.80
2019-03-26T04:36:04.190Z,2.60
2019-03-26T04:38:32.974Z,2.80
2019-03-26T04:41:01.041Z,2.80
2019-03-26T04:43:29.087Z,2.80
2019-03-26T04:45:57.895Z,2.90
2019-03-26T04:48:26.778Z,2.90
2019-03-26T04:50:54.822Z,2.70
2019-03-26T04:53:23.638Z,2.60
2019-03-26T04:55:51.686Z,2.60
2019-03-26T04:58:20.508Z,2.90
2019-03-26T05:00:48.562Z,2.90
2019-03-26T05:03:16.643Z,2.70
2019-03-26T05:05:44.810Z,2.50
2019-03-26T05:08:12.863Z,2.30
2019-03-26T05:10:41.170Z,2.30
2019-03-26T05:13:09.214Z,2.20
2019-03-26T05:15:37.265Z,2.20
2019-03-26T05:18:05.328Z,2.20
2019-03-26T05:20:33.372Z,2.20
2019-03-26T05:23:01.390Z,2.20
2019-03-26T05:25:30.195Z,2.30
2019-03-26T05:27:58.258Z,2.20
2019-03-26T05:30:26.310Z,2.40
2019-03-26T05:32:55.125Z,2.40
2019-03-26T05:35:23.171Z,2.40
2019-03-26T05:37:51.985Z,2.30
2019-03-26T05:40:20.044Z,2.30
2019-03-26T05:42:48.087Z,2.40
2019-03-26T05:45:16.933Z,2.70
2019-03-26T05:47:45.096Z,2.70
2019-03-26T05:50:13.180Z,2.60
2019-03-26T05:52:41.243Z,2.30
2019-03-26T05:55:09.308Z,2.10
2019-03-26T05:57:37.356Z,2.30
2019-03-26T06:00:05.438Z,2.30
2019-03-26T06:02:33.560Z,2.50
2019-03-26T06:05:02.529Z,2.50
2019-03-26T06:07:31.395Z,2.80
2019-03-26T06:09:58.578Z,3.00
2019-03-26T06:12:26.626Z,2.80
2019-03-26T06:14:54.678Z,3.20
2019-03-26T06:17:22.728Z,3.70
2019-03-26T06:19:51.546Z,3.70
2019-03-26T06:22:19.590Z,3.70
2019-03-26T06:24:48.408Z,3.50
2019-03-26T06:27:16.459Z,3.50
2019-03-26T06:29:44.482Z,3.50
2019-03-26T06:32:12.716Z,3.40
2019-03-26T06:34:40.811Z,3.50
2019-03-26T06:37:17.787Z,3.20
2019-03-26T06:39:37.018Z,3.20
2019-03-26T06:42:05.086Z,3.10
2019-03-26T06:44:34.096Z,3.20
2019-03-26T06:47:02.141Z,3.20
2019-03-26T06:49:30.223Z,3.20
2019-03-26T06:51:58.296Z,3.30
2019-03-26T06:54:26.363Z,3.30
2019-03-26T06:56:55.126Z,3.20
2019-03-26T06:59:23.955Z,3.40
2019-03-26T07:01:51.995Z,3.40
2019-03-26T07:04:20.898Z,3.40
2019-03-26T07:06:48.922Z,3.30
2019-03-26T07:09:17.055Z,3.60
2019-03-26T07:11:45.093Z,4.00
2019-03-26T07:14:13.899Z,3.80
2019-03-26T07:16:41.966Z,3.70
2019-03-26T07:19:10.019Z,3.70
2019-03-26T07:21:49.204Z,3.80
2019-03-26T07:24:06.153Z,3.90
2019-03-26T07:26:34.194Z,3.80
2019-03-26T07:29:02.222Z,3.80
2019-03-26T07:31:30.267Z,3.90
2019-03-26T07:33:59.067Z,3.60
2019-03-26T07:36:27.978Z,3.70
2019-03-26T07:38:56.036Z,3.70
2019-03-26T07:41:24.103Z,3.90
2019-03-26T07:43:52.131Z,4.10
2019-03-26T07:46:20.158Z,4.30
2019-03-26T07:48:48.214Z,4.40
2019-03-26T07:51:16.218Z,4.40
2019-03-26T07:53:44.269Z,4.40
2019-03-26T07:56:12.302Z,4.70
2019-03-26T07:58:41.092Z,4.50
2019-03-26T08:01:09.963Z,4.60
2019-03-26T08:03:37.977Z,4.60
2019-03-26T08:06:06.131Z,4.70
2019-03-26T08:08:34.149Z,4.70
2019-03-26T08:11:02.190Z,5.00
2019-03-26T08:13:30.256Z,5.20
2019-03-26T08:15:58.296Z,5.20
2019-03-26T08:18:26.318Z,5.20
2019-03-26T08:20:57.336Z,5.50
2019-03-26T08:23:23.147Z,5.50
2019-03-26T08:25:51.190Z,5.40
2019-03-26T08:28:19.299Z,5.40
2019-03-26T08:30:49.994Z,5.60
2019-03-26T08:33:15.386Z,5.60
2019-03-26T08:35:43.489Z,5.40
2019-03-26T08:38:13.378Z,5.40
2019-03-26T08:40:41.100Z,5.70
2019-03-26T08:43:09.130Z,5.60
2019-03-26T08:45:37.939Z,5.90
2019-03-26T08:48:06.007Z,5.90
2019-03-26T08:50:34.164Z,5.60
2019-03-26T08:53:02.972Z,5.90
2019-03-26T08:55:31.008Z,5.90
2019-03-26T08:57:59.031Z,6.30
2019-03-26T09:00:27.059Z,6.30
2019-03-26T09:02:55.860Z,6.70
2019-03-26T09:05:23.939Z,6.70
2019-03-26T09:07:52.715Z,6.80
2019-03-26T09:10:26.627Z,7.20
2019-03-26T09:12:54.670Z,7.20
2019-03-26T09:15:23.486Z,8.10
2019-03-26T09:17:51.563Z,8.10
2019-03-26T09:20:20.339Z,7.80
2019-03-26T09:22:49.150Z,7.50
2019-03-26T09:25:17.939Z,7.40
2019-03-26T09:27:45.991Z,7.30
2019-03-26T09:30:14.014Z,7.90
2019-03-26T09:32:42.127Z,8.50
2019-03-26T09:35:10.161Z,8.60
2019-03-26T09:37:39.711Z,8.60
2019-03-26T09:40:07.888Z,8.60
2019-03-26T09:42:35.988Z,8.60
2019-03-26T09:45:06.715Z,8.00
2019-03-26T09:47:34.758Z,8.20
2019-03-26T09:50:02.784Z,8.40
2019-03-26T09:52:30.901Z,8.40
2019-03-26T09:54:58.974Z,8.50
2019-03-26T09:57:27.013Z,8.20
2019-03-26T09:59:55.829Z,7.90
2019-03-26T10:02:24.602Z,7.80
2019-03-26T10:04:52.638Z,7.80
2019-03-26T10:07:21.875Z,7.80
2019-03-26T10:09:48.712Z,7.70
2019-03-26T10:12:16.747Z,6.90
2019-03-26T10:14:44.776Z,6.60
2019-03-26T10:17:12.814Z,6.20
2019-03-26T10:19:41.620Z,6.20
2019-03-26T10:22:10.404Z,6.30
2019-03-26T10:24:38.435Z,6.20
2019-03-26T10:27:08.003Z,6.60
2019-03-26T10:29:36.058Z,6.60
2019-03-26T10:32:04.848Z,7.00
2019-03-26T10:34:32.875Z,7.00
2019-03-26T10:37:01.679Z,7.50
2019-03-26T10:39:30.481Z,7.70
2019-03-26T10:41:59.376Z,7.50
2019-03-26T10:44:27.402Z,7.50
2019-03-26T10:46:55.451Z,7.60
2019-03-26T10:49:23.486Z,7.80
2019-03-26T10:51:51.547Z,7.40
2019-03-26T10:54:19.584Z,7.30
2019-03-26T10:56:47.706Z,7.40
2019-03-26T10:59:15.743Z,7.60
2019-03-26T11:01:44.696Z,7.60
2019-03-26T11:04:12.699Z,7.60
2019-03-26T11:06:41.523Z,7.90
2019-03-26T11:09:23.048Z,7.90
2019-03-26T11:11:37.656Z,9.20
2019-03-26T11:14:05.707Z,10.60
2019-03-26T11:16:35.139Z,9.40
2019-03-26T11:19:03.198Z,9.40
2019-03-26T11:21:31.322Z,8.80
2019-03-26T11:23:59.362Z,8.90
2019-03-26T11:26:27.422Z,8.70
2019-03-26T11:28:55.468Z,8.60
2019-03-26T11:31:24.277Z,8.00
2019-03-26T11:33:52.324Z,8.00
2019-03-26T11:36:21.160Z,10.00
2019-03-26T11:38:49.187Z,10.00
2019-03-26T11:41:17.791Z,10.40
2019-03-26T11:43:45.827Z,9.50
2019-03-26T11:46:14.636Z,7.90
2019-03-26T11:48:42.697Z,7.90
2019-03-26T11:51:10.726Z,7.90
2019-03-26T11:53:38.862Z,7.90
2019-03-26T11:56:06.894Z,8.40
2019-03-26T11:58:35.713Z,8.40
2019-03-26T12:01:03.734Z,8.40
2019-03-26T12:03:31.783Z,8.50
2019-03-26T12:05:59.926Z,9.10
2019-03-26T12:08:28.114Z,10.80
2019-03-26T12:10:56.231Z,11.80
2019-03-26T12:13:24.326Z,12.00
2019-03-26T12:15:53.103Z,10.30
2019-03-26T12:18:21.914Z,9.50
2019-03-26T12:20:50.077Z,9.40
2019-03-26T12:23:18.154Z,9.10
2019-03-26T12:25:46.243Z,8.90
2019-03-26T12:28:14.280Z,8.50
2019-03-26T12:30:43.091Z,10.60
2019-03-26T12:33:11.138Z,10.60
2019-03-26T12:35:39.203Z,11.90
2019-03-26T12:38:16.408Z,11.50
2019-03-26T12:40:45.223Z,11.70
2019-03-26T12:43:13.364Z,11.70
2019-03-26T12:45:42.234Z,10.70
2019-03-26T12:48:11.043Z,10.00
2019-03-26T12:50:39.106Z,10.00
2019-03-26T12:53:07.211Z,9.40
2019-03-26T12:55:35.257Z,9.00
2019-03-26T12:58:03.409Z,8.60
2019-03-26T13:00:32.220Z,8.20
2019-03-26T13:03:00.255Z,8.20
2019-03-26T13:05:28.295Z,8.40
2019-03-26T13:07:56.445Z,8.40
2019-03-26T13:10:24.488Z,8.50
2019-03-26T13:12:53.282Z,9.10
2019-03-26T13:15:22.060Z,9.90
2019-03-26T13:17:50.855Z,10.10
2019-03-26T13:20:18.901Z,10.10
2019-03-26T13:22:47.808Z,10.00
2019-03-26T13:25:15.955Z,10.00
2019-03-26T13:27:44.772Z,10.20
2019-03-26T13:30:13.560Z,9.50
2019-03-26T13:32:42.462Z,9.40
2019-03-26T13:35:10.503Z,9.40
2019-03-26T13:37:39.322Z,8.90
2019-03-26T13:40:08.199Z,8.80
2019-03-26T13:42:36.279Z,8.80
2019-03-26T13:45:05.958Z,8.80
2019-03-26T13:47:34.787Z,9.40
2019-03-26T13:50:02.819Z,9.40
2019-03-26T13:52:31.691Z,9.00
2019-03-26T13:54:59.732Z,8.90
2019-03-26T13:57:27.868Z,9.00
2019-03-26T13:59:55.910Z,9.20
2019-03-26T14:02:24.006Z,9.30
2019-03-26T14:04:52.812Z,9.20
2019-03-26T14:07:21.584Z,9.30
2019-03-26T14:09:49.658Z,9.30
2019-03-26T14:12:18.439Z,9.10
2019-03-26T14:14:46.507Z,9.10
2019-03-26T14:17:14.548Z,9.10
2019-03-26T14:19:42.583Z,8.70
2019-03-26T14:22:10.610Z,8.50
2019-03-26T14:24:38.629Z,8.60
2019-03-26T14:27:06.656Z,8.30
2019-03-26T14:29:35.454Z,8.30
2019-03-26T14:32:03.485Z,8.30
2019-03-26T14:34:31.527Z,8.50
2019-03-26T14:36:59.556Z,8.60
2019-03-26T14:39:27.590Z,8.50
2019-03-26T14:41:55.632Z,8.50
2019-03-26T14:44:23.763Z,8.60
2019-03-26T14:46:52.660Z,8.30
2019-03-26T14:49:21.543Z,8.70
2019-03-26T14:51:50.339Z,9.20
2019-03-26T14:54:19.174Z,9.00
2019-03-26T14:56:47.289Z,9.00
2019-03-26T14:59:16.182Z,8.90
2019-03-26T15:01:44.224Z,8.90
2019-03-26T15:04:23.745Z,8.90
2019-03-26T15:06:51.774Z,8.50
2019-03-26T15:09:19.811Z,8.80
2019-03-26T15:11:48.722Z,9.10
2019-03-26T15:14:16.759Z,9.10
2019-03-26T15:16:44.871Z,9.30
2019-03-26T15:19:12.894Z,9.40
2019-03-26T15:21:40.947Z,9.40
2019-03-26T15:24:08.951Z,8.80
2019-03-26T15:26:37.765Z,8.20
2019-03-26T15:29:06.551Z,8.10
2019-03-26T15:31:34.590Z,8.10
2019-03-26T15:34:02.688Z,8.10
2019-03-26T15:36:30.725Z,8.00
2019-03-26T15:38:58.850Z,8.00
2019-03-26T15:41:30.065Z,7.90
2019-03-26T15:43:54.870Z,7.70
2019-03-26T15:46:22.943Z,7.60
2019-03-26T15:48:50.984Z,7.50
2019-03-26T15:51:19.446Z,7.50
2019-03-26T15:53:47.478Z,7.50
2019-03-26T15:56:15.537Z,7.50
2019-03-26T15:58:43.584Z,7.40
2019-03-26T16:01:11.608Z,7.40
2019-03-26T16:03:39.649Z,7.60
2019-03-26T16:06:07.723Z,7.50
2019-03-26T16:08:36.107Z,7.40
2019-03-26T16:11:03.792Z,7.50
2019-03-26T16:13:31.819Z,7.70
2019-03-26T16:16:00.614Z,7.70
2019-03-26T16:18:28.655Z,7.70
2019-03-26T16:20:57.450Z,8.00
2019-03-26T16:23:26.255Z,7.90
2019-03-26T16:25:55.044Z,7.80
2019-03-26T16:28:23.176Z,7.70
2019-03-26T16:30:51.233Z,7.70
2019-03-26T16:33:19.228Z,7.60
2019-03-26T16:35:48.032Z,7.40
2019-03-26T16:38:16.051Z,7.40
2019-03-26T16:40:44.919Z,7.20
2019-03-26T16:43:12.989Z,7.20
2019-03-26T16:45:41.742Z,7.30
2019-03-26T16:48:10.530Z,7.40
2019-03-26T16:50:39.325Z,7.40
2019-03-26T16:53:07.395Z,7.40
2019-03-26T16:55:36.183Z,7.40
2019-03-26T16:58:04.234Z,7.40
2019-03-26T17:00:32.239Z,7.40
2019-03-26T17:03:00.274Z,7.40
2019-03-26T17:05:29.080Z,7.20
2019-03-26T17:07:57.150Z,7.20
2019-03-26T17:10:25.189Z,7.30
2019-03-26T17:12:53.216Z,7.30
2019-03-26T17:15:21.238Z,7.20
2019-03-26T17:17:50.056Z,7.10
2019-03-26T17:20:18.087Z,7.10
2019-03-26T17:22:46.219Z,7.00
2019-03-26T17:25:14.259Z,7.10
2019-03-26T17:27:43.147Z,7.00
2019-03-26T17:30:11.171Z,7.00
2019-03-26T17:32:39.298Z,7.00
2019-03-26T17:35:08.080Z,6.90
2019-03-26T17:37:36.126Z,6.90
2019-03-26T17:40:04.921Z,6.90
2019-03-26T17:42:33.748Z,6.90
2019-03-26T17:45:01.754Z,6.90
2019-03-26T17:47:29.801Z,6.90
2019-03-26T17:49:57.841Z,6.90
2019-03-26T17:52:26.029Z,6.80
2019-03-26T17:54:54.050Z,6.90
2019-03-26T17:57:22.855Z,7.00
2019-03-26T17:59:50.935Z,7.00
2019-03-26T18:02:19.017Z,6.90
2019-03-26T18:04:47.083Z,6.90
2019-03-26T18:07:15.127Z,6.90
2019-03-26T18:09:44.031Z,7.00
2019-03-26T18:12:12.074Z,6.90
2019-03-26T18:14:40.887Z,6.90
2019-03-26T18:17:08.931Z,6.80
2019-03-26T18:19:37.739Z,6.80
2019-03-26T18:22:06.531Z,6.70
2019-03-26T18:24:34.618Z,6.70
2019-03-26T18:27:02.666Z,6.80
2019-03-26T18:29:31.482Z,6.60
2019-03-26T18:32:00.246Z,6.60
2019-03-26T18:34:29.055Z,6.70
2019-03-26T18:36:57.822Z,6.80
2019-03-26T18:39:25.873Z,6.80
2019-03-26T18:41:53.871Z,6.80
2019-03-26T18:44:21.937Z,6.90
2019-03-26T18:46:49.966Z,6.90
2019-03-26T18:49:18.018Z,6.80
2019-03-26T18:51:46.063Z,6.70
2019-03-26T18:54:14.098Z,6.60
2019-03-26T18:56:42.895Z,6.60
2019-03-26T18:59:11.700Z,6.60
2019-03-26T19:01:39.719Z,6.60
2019-03-26T19:04:09.283Z,6.60
2019-03-26T19:06:37.287Z,6.60
2019-03-26T19:09:05.403Z,6.70
2019-03-26T19:11:33.444Z,6.60
2019-03-26T19:14:03.005Z,6.40
2019-03-26T19:16:31.132Z,6.40
2019-03-26T19:18:59.848Z,6.40
2019-03-26T19:21:27.876Z,6.40
2019-03-26T19:24:04.140Z,6.20
2019-03-26T19:26:25.455Z,6.20
2019-03-26T19:28:53.566Z,6.30
2019-03-26T19:31:21.589Z,6.20
2019-03-26T19:33:49.645Z,6.20
2019-03-26T19:36:17.679Z,6.10
2019-03-26T19:38:46.475Z,6.00
2019-03-26T19:41:14.502Z,6.00
2019-03-26T19:43:43.338Z,6.00
2019-03-26T19:46:11.376Z,6.00
2019-03-26T19:48:39.411Z,6.10
2019-03-26T19:51:07.450Z,6.00
2019-03-26T19:53:35.483Z,6.00
2019-03-26T19:56:03.530Z,6.00
2019-03-26T19:58:32.338Z,6.20
2019-03-26T20:01:01.336Z,6.20
2019-03-26T20:03:29.362Z,6.20
2019-03-26T20:05:57.387Z,6.20
2019-03-26T20:08:25.415Z,6.00
2019-03-26T20:10:53.454Z,6.00
2019-03-26T20:13:24.613Z,5.90
2019-03-26T20:15:49.530Z,5.90
2019-03-26T20:18:18.341Z,6.10
2019-03-26T20:20:47.233Z,6.00
2019-03-26T20:23:15.263Z,6.00
2019-03-26T20:25:44.915Z,5.90
2019-03-26T20:28:12.995Z,5.90
2019-03-26T20:30:41.040Z,5.80
2019-03-26T20:33:09.879Z,5.70
2019-03-26T20:35:37.933Z,5.70
2019-03-26T20:38:05.976Z,5.90
2019-03-26T20:40:34.286Z,6.00
2019-03-26T20:43:02.329Z,5.90
2019-03-26T20:45:30.383Z,5.80
2019-03-26T20:47:59.179Z,5.80
2019-03-26T20:50:27.226Z,5.80
2019-03-26T20:52:56.046Z,5.80
2019-03-26T20:55:29.123Z,5.80
2019-03-26T20:57:57.167Z,5.60
2019-03-26T21:00:26.097Z,5.60
2019-03-26T21:02:54.158Z,5.70
2019-03-26T21:05:22.203Z,5.80
2019-03-26T21:07:50.226Z,5.80
2019-03-26T21:10:18.259Z,5.80
2019-03-26T21:12:47.078Z,5.80
2019-03-26T21:15:15.115Z,5.80
2019-03-26T21:17:43.164Z,5.80
2019-03-26T21:20:11.463Z,5.80
2019-03-26T21:22:39.543Z,5.80
2019-03-26T21:25:07.575Z,5.80
2019-03-26T21:27:35.625Z,5.90
2019-03-26T21:30:11.556Z,6.00
2019-03-26T21:32:35.402Z,5.80
2019-03-26T21:35:03.452Z,5.80
2019-03-26T21:37:32.274Z,5.70
2019-03-26T21:40:01.046Z,5.60
2019-03-26T21:42:29.944Z,5.60
2019-03-26T21:44:58.014Z,5.60
2019-03-26T21:47:26.054Z,5.60
2019-03-26T21:49:54.091Z,5.60
2019-03-26T21:52:22.139Z,5.60
2019-03-26T21:54:50.146Z,5.40
2019-03-26T21:57:18.196Z,5.50
2019-03-26T21:59:46.232Z,5.50
2019-03-26T22:02:14.291Z,5.50
2019-03-26T22:04:43.087Z,5.60
2019-03-26T22:07:11.154Z,5.50
2019-03-26T22:09:39.202Z,5.70
2019-03-26T22:12:08.045Z,5.40
2019-03-26T22:14:36.074Z,5.40
2019-03-26T22:17:04.875Z,5.40
2019-03-26T22:19:32.930Z,5.40
2019-03-26T22:22:01.751Z,5.40
2019-03-26T22:24:29.902Z,5.40
2019-03-26T22:26:57.956Z,5.50
2019-03-26T22:29:26.880Z,5.50
2019-03-26T22:31:54.952Z,5.50
2019-03-26T22:34:22.990Z,5.50
2019-03-26T22:36:51.819Z,5.30
2019-03-26T22:39:19.970Z,5.30
2019-03-26T22:41:48.863Z,5.50
2019-03-26T22:44:16.923Z,5.50
2019-03-26T22:46:44.986Z,5.50
2019-03-26T22:49:13.001Z,5.30
2019-03-26T22:51:41.038Z,5.20
2019-03-26T22:54:09.085Z,5.10
2019-03-26T22:56:37.886Z,5.00
2019-03-26T22:59:05.943Z,5.00
2019-03-26T23:01:34.860Z,5.10
2019-03-26T23:04:03.644Z,5.10
2019-03-26T23:06:31.682Z,5.00
2019-03-26T23:09:00.499Z,5.20
2019-03-26T23:11:28.553Z,5.10
2019-03-26T23:13:57.391Z,5.20
2019-03-26T23:16:25.430Z,5.10
2019-03-26T23:18:53.479Z,5.20
2019-03-26T23:21:22.697Z,5.00
2019-03-26T23:23:50.743Z,5.00
2019-03-26T23:26:19.559Z,5.10
2019-03-26T23:28:47.615Z,5.10
2019-03-26T23:31:15.667Z,5.20
2019-03-26T23:33:44.466Z,5.00
2019-03-26T23:36:13.278Z,4.90
2019-03-26T23:38:41.442Z,4.90
2019-03-26T23:41:09.527Z,4.80
2019-03-26T23:43:37.577Z,5.00
2019-03-26T23:46:05.636Z,5.10
2019-03-26T23:48:34.452Z,4.90
2019-03-26T23:51:03.235Z,5.00
2019-03-26T23:53:31.279Z,5.00
2019-03-26T23:56:00.086Z,5.20
2019-03-26T23:58:28.159Z,5.10
